sensor_id;sensor_type;location;lat;lon;timestamp;pressure;altitude;pressure_sealevel;temperature
8253;BMP280;61313;48.396;10.008;2023-01-05T00:01:48;96703.16;;;10.87
8253;BMP280;61313;48.396;10.008;2023-01-05T00:04:14;96706.94;;;10.90
8253;BMP280;61313;48.396;10.008;2023-01-05T00:06:40;96705.81;;;10.84
8253;BMP280;61313;48.396;10.008;2023-01-05T00:09:11;96690.75;;;10.84
8253;BMP280;61313;48.396;10.008;2023-01-05T00:11:37;96699.81;;;10.83
8253;BMP280;61313;48.396;10.008;2023-01-05T00:14:24;96691.88;;;10.87
8253;BMP280;61313;48.396;10.008;2023-01-05T00:17:11;96694.13;;;10.96
8253;BMP280;61313;48.396;10.008;2023-01-05T00:19:55;96695.63;;;10.93
8253;BMP280;61313;48.396;10.008;2023-01-05T00:22:50;96693.00;;;10.93
8253;BMP280;61313;48.396;10.008;2023-01-05T00:25:19;96695.25;;;10.95
8253;BMP280;61313;48.396;10.008;2023-01-05T00:27:46;96688.09;;;10.99
8253;BMP280;61313;48.396;10.008;2023-01-05T00:30:14;96680.97;;;10.96
8253;BMP280;61313;48.396;10.008;2023-01-05T00:32:41;96679.47;;;10.98
8253;BMP280;61313;48.396;10.008;2023-01-05T00:35:08;96683.59;;;10.96
8253;BMP280;61313;48.396;10.008;2023-01-05T00:37:34;96681.72;;;10.96
8253;BMP280;61313;48.396;10.008;2023-01-05T00:40:00;96681.34;;;10.98
8253;BMP280;61313;48.396;10.008;2023-01-05T00:42:26;96681.72;;;10.96
8253;BMP280;61313;48.396;10.008;2023-01-05T00:44:51;96658.03;;;10.93
8253;BMP280;61313;48.396;10.008;2023-01-05T00:47:17;96653.88;;;11.02
8253;BMP280;61313;48.396;10.008;2023-01-05T00:49:42;96651.97;;;11.03
8253;BMP280;61313;48.396;10.008;2023-01-05T00:52:08;96657.63;;;11.01
8253;BMP280;61313;48.396;10.008;2023-01-05T00:54:33;96644.44;;;11.08
8253;BMP280;61313;48.396;10.008;2023-01-05T00:56:59;96644.47;;;11.05
8253;BMP280;61313;48.396;10.008;2023-01-05T00:59:25;96657.25;;;11.06
8253;BMP280;61313;48.396;10.008;2023-01-05T01:01:52;96661.75;;;11.02
8253;BMP280;61313;48.396;10.008;2023-01-05T01:04:18;96651.56;;;11.11
8253;BMP280;61313;48.396;10.008;2023-01-05T01:06:45;96659.09;;;11.09
8253;BMP280;61313;48.396;10.008;2023-01-05T01:09:11;96654.22;;;11.11
8253;BMP280;61313;48.396;10.008;2023-01-05T01:11:37;96649.69;;;11.08
8253;BMP280;61313;48.396;10.008;2023-01-05T01:14:04;96644.44;;;11.12
8253;BMP280;61313;48.396;10.008;2023-01-05T01:16:29;96641.41;;;11.10
8253;BMP280;61313;48.396;10.008;2023-01-05T01:18:55;96640.28;;;11.14
8253;BMP280;61313;48.396;10.008;2023-01-05T01:21:21;96639.16;;;11.12
8253;BMP280;61313;48.396;10.008;2023-01-05T01:23:46;96639.16;;;11.12
8253;BMP280;61313;48.396;10.008;2023-01-05T01:26:12;96648.22;;;11.04
8253;BMP280;61313;48.396;10.008;2023-01-05T01:28:38;96652.31;;;11.08
8253;BMP280;61313;48.396;10.008;2023-01-05T01:31:04;96646.31;;;11.08
8253;BMP280;61313;48.396;10.008;2023-01-05T01:33:30;96662.47;;;11.10
8253;BMP280;61313;48.396;10.008;2023-01-05T01:35:56;96671.13;;;11.14
8253;BMP280;61313;48.396;10.008;2023-01-05T01:38:21;96658.34;;;11.09
8253;BMP280;61313;48.396;10.008;2023-01-05T01:40:48;96658.41;;;10.98
8253;BMP280;61313;48.396;10.008;2023-01-05T01:43:16;96658.75;;;11.04
8253;BMP280;61313;48.396;10.008;2023-01-05T01:45:42;96657.25;;;11.03
8253;BMP280;61313;48.396;10.008;2023-01-05T01:48:15;96656.13;;;11.04
8253;BMP280;61313;48.396;10.008;2023-01-05T01:50:52;96648.22;;;11.00
8253;BMP280;61313;48.396;10.008;2023-01-05T01:53:30;96655.38;;;11.03
8253;BMP280;61313;48.396;10.008;2023-01-05T01:55:58;96652.72;;;11.00
8253;BMP280;61313;48.396;10.008;2023-01-05T01:58:27;96650.09;;;11.07
8253;BMP280;61313;48.396;10.008;2023-01-05T02:00:54;96644.06;;;11.13
8253;BMP280;61313;48.396;10.008;2023-01-05T02:03:20;96640.28;;;11.11
8253;BMP280;61313;48.396;10.008;2023-01-05T02:05:45;96634.66;;;11.12
8253;BMP280;61313;48.396;10.008;2023-01-05T02:08:12;96636.88;;;11.17
8253;BMP280;61313;48.396;10.008;2023-01-05T02:13:18;96622.19;;;11.16
8253;BMP280;61313;48.396;10.008;2023-01-05T02:18:55;96618.81;;;11.19
8253;BMP280;61313;48.396;10.008;2023-01-05T02:33:29;96610.53;;;11.17
8253;BMP280;61313;48.396;10.008;2023-01-05T02:36:02;96605.31;;;11.14
8253;BMP280;61313;48.396;10.008;2023-01-05T02:41:29;96601.09;;;11.27
8253;BMP280;61313;48.396;10.008;2023-01-05T02:43:56;96605.66;;;11.19
8253;BMP280;61313;48.396;10.008;2023-01-05T02:46:22;96591.34;;;11.20
8253;BMP280;61313;48.396;10.008;2023-01-05T02:48:49;96589.09;;;11.15
8253;BMP280;61313;48.396;10.008;2023-01-05T02:51:21;96585.34;;;11.20
8253;BMP280;61313;48.396;10.008;2023-01-05T02:54:00;96582.72;;;11.20
8253;BMP280;61313;48.396;10.008;2023-01-05T02:56:35;96580.44;;;11.18
8253;BMP280;61313;48.396;10.008;2023-01-05T02:59:20;96574.75;;;11.27
8253;BMP280;61313;48.396;10.008;2023-01-05T03:01:55;96576.66;;;11.26
8253;BMP280;61313;48.396;10.008;2023-01-05T03:04:27;96575.94;;;11.19
8253;BMP280;61313;48.396;10.008;2023-01-05T03:06:58;96573.63;;;11.24
8253;BMP280;61313;48.396;10.008;2023-01-05T03:09:29;96572.50;;;11.25
8253;BMP280;61313;48.396;10.008;2023-01-05T03:12:31;96587.19;;;11.26
8253;BMP280;61313;48.396;10.008;2023-01-05T03:15:21;96584.16;;;11.28
8253;BMP280;61313;48.396;10.008;2023-01-05T03:17:51;96591.31;;;11.27
8253;BMP280;61313;48.396;10.008;2023-01-05T03:20:21;96592.78;;;11.32
8253;BMP280;61313;48.396;10.008;2023-01-05T03:22:49;96601.81;;;11.31
8253;BMP280;61313;48.396;10.008;2023-01-05T03:25:37;96592.03;;;11.32
8253;BMP280;61313;48.396;10.008;2023-01-05T03:28:37;96594.31;;;11.30
8253;BMP280;61313;48.396;10.008;2023-01-05T03:34:38;96576.69;;;11.23
8253;BMP280;61313;48.396;10.008;2023-01-05T03:37:30;96582.66;;;11.27
8253;BMP280;61313;48.396;10.008;2023-01-05T03:39:58;96587.94;;;11.27
8253;BMP280;61313;48.396;10.008;2023-01-05T03:42:25;96581.91;;;11.26
8253;BMP280;61313;48.396;10.008;2023-01-05T03:44:53;96589.81;;;11.26
8253;BMP280;61313;48.396;10.008;2023-01-05T03:47:18;96583.78;;;11.26
8253;BMP280;61313;48.396;10.008;2023-01-05T03:49:44;96581.91;;;11.26
8253;BMP280;61313;48.396;10.008;2023-01-05T03:52:09;96570.63;;;11.30
8253;BMP280;61313;48.396;10.008;2023-01-05T03:54:35;96580.34;;;11.36
8253;BMP280;61313;48.396;10.008;2023-01-05T03:57:00;96564.94;;;11.31
8253;BMP280;61313;48.396;10.008;2023-01-05T03:59:25;96568.38;;;11.28
8253;BMP280;61313;48.396;10.008;2023-01-05T04:01:51;96573.22;;;11.33
8253;BMP280;61313;48.396;10.008;2023-01-05T04:04:16;96570.22;;;11.31
8253;BMP280;61313;48.396;10.008;2023-01-05T04:06:41;96568.38;;;11.28
8253;BMP280;61313;48.396;10.008;2023-01-05T04:09:07;96575.47;;;11.35
8253;BMP280;61313;48.396;10.008;2023-01-05T04:11:32;96577.41;;;11.27
8253;BMP280;61313;48.396;10.008;2023-01-05T04:13:58;96568.75;;;11.30
8253;BMP280;61313;48.396;10.008;2023-01-05T04:16:23;96571.38;;;11.30
8253;BMP280;61313;48.396;10.008;2023-01-05T04:18:49;96578.47;;;11.37
8253;BMP280;61313;48.396;10.008;2023-01-05T04:21:14;96588.31;;;11.29
8253;BMP280;61313;48.396;10.008;2023-01-05T04:23:40;96584.16;;;11.28
8253;BMP280;61313;48.396;10.008;2023-01-05T04:26:05;96584.97;;;11.21
8253;BMP280;61313;48.396;10.008;2023-01-05T04:28:31;96581.56;;;11.21
8253;BMP280;61313;48.396;10.008;2023-01-05T04:30:57;96577.78;;;11.29
8253;BMP280;61313;48.396;10.008;2023-01-05T04:33:24;96581.91;;;11.26
8253;BMP280;61313;48.396;10.008;2023-01-05T04:35:50;96579.69;;;11.21
8253;BMP280;61313;48.396;10.008;2023-01-05T04:38:16;96576.28;;;11.24
8253;BMP280;61313;48.396;10.008;2023-01-05T04:40:47;96568.00;;;11.26
8253;BMP280;61313;48.396;10.008;2023-01-05T04:43:12;96566.16;;;11.23
8253;BMP280;61313;48.396;10.008;2023-01-05T04:45:37;96560.88;;;11.23
8253;BMP280;61313;48.396;10.008;2023-01-05T04:48:03;96562.78;;;11.19
8253;BMP280;61313;48.396;10.008;2023-01-05T04:50:28;96561.66;;;11.20
8253;BMP280;61313;48.396;10.008;2023-01-05T04:52:54;96564.66;;;11.22
8253;BMP280;61313;48.396;10.008;2023-01-05T04:55:19;96554.41;;;11.31
8253;BMP280;61313;48.396;10.008;2023-01-05T04:57:44;96552.19;;;11.26
8253;BMP280;61313;48.396;10.008;2023-01-05T05:00:10;96556.75;;;11.22
8253;BMP280;61313;48.396;10.008;2023-01-05T05:02:36;96554.06;;;11.29
8253;BMP280;61313;48.396;10.008;2023-01-05T05:05:01;96553.31;;;11.25
8253;BMP280;61313;48.396;10.008;2023-01-05T05:07:27;96561.25;;;11.21
8253;BMP280;61313;48.396;10.008;2023-01-05T05:09:53;96560.84;;;11.26
8253;BMP280;61313;48.396;10.008;2023-01-05T05:12:18;96560.47;;;11.24
8253;BMP280;61313;48.396;10.008;2023-01-05T05:14:46;96557.09;;;11.27
8253;BMP280;61313;48.396;10.008;2023-01-05T05:17:11;96567.63;;;11.27
8253;BMP280;61313;48.396;10.008;2023-01-05T05:19:37;96572.88;;;11.27
8253;BMP280;61313;48.396;10.008;2023-01-05T05:22:02;96581.13;;;11.33
8253;BMP280;61313;48.396;10.008;2023-01-05T05:24:28;96568.31;;;11.32
8253;BMP280;61313;48.396;10.008;2023-01-05T05:26:53;96591.28;;;11.31
8253;BMP280;61313;48.396;10.008;2023-01-05T05:29:19;96586.81;;;11.28
8253;BMP280;61313;48.396;10.008;2023-01-05T05:31:44;96592.84;;;11.21
8253;BMP280;61313;48.396;10.008;2023-01-05T05:34:10;96597.31;;;11.28
8253;BMP280;61313;48.396;10.008;2023-01-05T05:36:36;96589.44;;;11.28
8253;BMP280;61313;48.396;10.008;2023-01-05T05:39:02;96574.00;;;11.26
8253;BMP280;61313;48.396;10.008;2023-01-05T05:41:28;96579.31;;;11.23
8253;BMP280;61313;48.396;10.008;2023-01-05T05:43:53;96584.59;;;11.16
8253;BMP280;61313;48.396;10.008;2023-01-05T05:46:18;96581.63;;;11.14
8253;BMP280;61313;48.396;10.008;2023-01-05T05:48:44;96584.22;;;11.21
8253;BMP280;61313;48.396;10.008;2023-01-05T05:51:09;96584.22;;;11.21
8253;BMP280;61313;48.396;10.008;2023-01-05T05:53:35;96597.00;;;11.19
8253;BMP280;61313;48.396;10.008;2023-01-05T05:56:00;96598.50;;;11.20
8253;BMP280;61313;48.396;10.008;2023-01-05T05:58:26;96603.78;;;11.16
8253;BMP280;61313;48.396;10.008;2023-01-05T06:00:56;96612.47;;;11.13
8253;BMP280;61313;48.396;10.008;2023-01-05T06:03:22;96610.53;;;11.17
8253;BMP280;61313;48.396;10.008;2023-01-05T06:05:47;96617.69;;;11.20
8253;BMP280;61313;48.396;10.008;2023-01-05T06:08:13;96615.03;;;11.24
8253;BMP280;61313;48.396;10.008;2023-01-05T06:10:38;96624.47;;;11.18
8253;BMP280;61313;48.396;10.008;2023-01-05T06:13:04;96603.81;;;11.13
8253;BMP280;61313;48.396;10.008;2023-01-05T06:15:29;96618.09;;;11.12
8253;BMP280;61313;48.396;10.008;2023-01-05T06:17:54;96620.75;;;11.08
8253;BMP280;61313;48.396;10.008;2023-01-05T06:20:20;96625.25;;;11.08
8253;BMP280;61313;48.396;10.008;2023-01-05T06:22:45;96635.03;;;11.14
8253;BMP280;61313;48.396;10.008;2023-01-05T06:25:11;96636.91;;;11.14
8253;BMP280;61313;48.396;10.008;2023-01-05T06:27:36;96639.53;;;11.14
8253;BMP280;61313;48.396;10.008;2023-01-05T06:30:02;96644.03;;;11.17
8253;BMP280;61313;48.396;10.008;2023-01-05T06:32:28;96637.63;;;11.18
8253;BMP280;61313;48.396;10.008;2023-01-05T06:34:53;96642.50;;;11.19
8253;BMP280;61313;48.396;10.008;2023-01-05T06:37:19;96639.13;;;11.15
8253;BMP280;61313;48.396;10.008;2023-01-05T06:39:44;96641.03;;;11.11
8253;BMP280;61313;48.396;10.008;2023-01-05T06:42:10;96637.66;;;11.11
8253;BMP280;61313;48.396;10.008;2023-01-05T06:44:35;96631.63;;;11.10
8253;BMP280;61313;48.396;10.008;2023-01-05T06:47:04;96644.06;;;11.10
8253;BMP280;61313;48.396;10.008;2023-01-05T06:49:29;96636.91;;;11.14
8253;BMP280;61313;48.396;10.008;2023-01-05T06:51:55;96636.53;;;11.12
8253;BMP280;61313;48.396;10.008;2023-01-05T06:54:20;96648.94;;;11.15
8253;BMP280;61313;48.396;10.008;2023-01-05T06:56:45;96656.13;;;11.07
8253;BMP280;61313;48.396;10.008;2023-01-05T06:59:11;96659.09;;;11.09
8253;BMP280;61313;48.396;10.008;2023-01-05T07:01:37;96668.84;;;11.16
8253;BMP280;61313;48.396;10.008;2023-01-05T07:04:02;96665.84;;;11.17
8253;BMP280;61313;48.396;10.008;2023-01-05T07:06:28;96657.94;;;11.21
8253;BMP280;61313;48.396;10.008;2023-01-05T07:08:53;96671.84;;;11.18
8253;BMP280;61313;48.396;10.008;2023-01-05T07:11:19;96674.88;;;11.13
8253;BMP280;61313;48.396;10.008;2023-01-05T07:13:50;96673.75;;;11.10
8253;BMP280;61313;48.396;10.008;2023-01-05T07:16:17;96675.25;;;11.11
8253;BMP280;61313;48.396;10.008;2023-01-05T07:18:43;96676.78;;;11.09
8253;BMP280;61313;48.396;10.008;2023-01-05T07:21:08;96683.19;;;11.04
8253;BMP280;61313;48.396;10.008;2023-01-05T07:23:34;96682.81;;;11.06
8253;BMP280;61313;48.396;10.008;2023-01-05T07:26:03;96686.53;;;11.08
8253;BMP280;61313;48.396;10.008;2023-01-05T07:28:28;96690.72;;;11.06
8253;BMP280;61313;48.396;10.008;2023-01-05T07:30:54;96695.59;;;11.07
8253;BMP280;61313;48.396;10.008;2023-01-05T07:33:19;96695.56;;;11.11
8253;BMP280;61313;48.396;10.008;2023-01-05T07:35:45;96701.22;;;11.09
8253;BMP280;61313;48.396;10.008;2023-01-05T07:38:10;96702.38;;;11.05
8253;BMP280;61313;48.396;10.008;2023-01-05T07:40:36;96704.97;;;11.08
8253;BMP280;61313;48.396;10.008;2023-01-05T07:43:01;96708.38;;;11.02
8253;BMP280;61313;48.396;10.008;2023-01-05T07:45:27;96708.72;;;11.11
8253;BMP280;61313;48.396;10.008;2023-01-05T07:47:52;96704.59;;;11.10
8253;BMP280;61313;48.396;10.008;2023-01-05T07:50:17;96708.00;;;11.07
8253;BMP280;61313;48.396;10.008;2023-01-05T07:52:43;96717.03;;;11.02
8253;BMP280;61313;48.396;10.008;2023-01-05T07:55:08;96716.66;;;11.04
8253;BMP280;61313;48.396;10.008;2023-01-05T07:57:34;96718.91;;;11.05
8253;BMP280;61313;48.396;10.008;2023-01-05T08:00:00;96726.03;;;11.12
8253;BMP280;61313;48.396;10.008;2023-01-05T08:02:25;96725.97;;;11.30
8253;BMP280;61313;48.396;10.008;2023-01-05T08:04:52;96725.25;;;11.22
8253;BMP280;61313;48.396;10.008;2023-01-05T08:07:17;96729.41;;;11.23
8253;BMP280;61313;48.396;10.008;2023-01-05T08:09:42;96723.72;;;11.24
8253;BMP280;61313;48.396;10.008;2023-01-05T08:12:27;96732.38;;;11.25
8253;BMP280;61313;48.396;10.008;2023-01-05T08:14:53;96733.13;;;11.25
8253;BMP280;61313;48.396;10.008;2023-01-05T08:17:19;96746.28;;;11.25
8253;BMP280;61313;48.396;10.008;2023-01-05T08:19:45;96752.69;;;11.24
8253;BMP280;61313;48.396;10.008;2023-01-05T08:22:10;96754.94;;;11.26
8253;BMP280;61313;48.396;10.008;2023-01-05T08:24:36;96748.19;;;11.29
8253;BMP280;61313;48.396;10.008;2023-01-05T08:27:01;96753.81;;;11.23
8253;BMP280;61313;48.396;10.008;2023-01-05T08:29:27;96755.69;;;11.30
8253;BMP280;61313;48.396;10.008;2023-01-05T08:31:52;96762.09;;;11.29
8253;BMP280;61313;48.396;10.008;2023-01-05T08:34:18;96769.66;;;11.20
8253;BMP280;61313;48.396;10.008;2023-01-05T08:36:43;96767.38;;;11.25
8253;BMP280;61313;48.396;10.008;2023-01-05T08:39:10;96772.25;;;11.27
8253;BMP280;61313;48.396;10.008;2023-01-05T08:41:37;96762.09;;;11.29
8253;BMP280;61313;48.396;10.008;2023-01-05T08:44:09;96765.84;;;11.28
8253;BMP280;61313;48.396;10.008;2023-01-05T08:46:35;96770.75;;;11.30
8253;BMP280;61313;48.396;10.008;2023-01-05T08:49:02;96776.00;;;11.26
8253;BMP280;61313;48.396;10.008;2023-01-05T08:51:29;96793.69;;;11.29
8253;BMP280;61313;48.396;10.008;2023-01-05T08:53:56;96802.72;;;11.28
8253;BMP280;61313;48.396;10.008;2023-01-05T08:56:22;96815.13;;;11.27
8253;BMP280;61313;48.396;10.008;2023-01-05T08:58:53;96809.09;;;11.34
8253;BMP280;61313;48.396;10.008;2023-01-05T09:01:23;96818.50;;;11.32
8253;BMP280;61313;48.396;10.008;2023-01-05T09:03:48;96812.47;;;11.35
8253;BMP280;61313;48.396;10.008;2023-01-05T09:06:14;96818.50;;;11.32
8253;BMP280;61313;48.396;10.008;2023-01-05T09:08:41;96816.63;;;11.36
8253;BMP280;61313;48.396;10.008;2023-01-05T09:11:11;96823.38;;;11.40
8253;BMP280;61313;48.396;10.008;2023-01-05T09:13:38;96827.13;;;11.39
8253;BMP280;61313;48.396;10.008;2023-01-05T09:18:30;96832.00;;;11.48
8253;BMP280;61313;48.396;10.008;2023-01-05T09:20:56;96833.53;;;11.52
8253;BMP280;61313;48.396;10.008;2023-01-05T09:23:21;96835.00;;;11.57
8253;BMP280;61313;48.396;10.008;2023-01-05T09:25:47;96844.75;;;11.63
8253;BMP280;61313;48.396;10.008;2023-01-05T09:28:12;96838.38;;;11.57
8253;BMP280;61313;48.396;10.008;2023-01-05T09:30:37;96836.09;;;11.63
8253;BMP280;61313;48.396;10.008;2023-01-05T09:33:03;96841.72;;;11.72
8253;BMP280;61313;48.396;10.008;2023-01-05T09:35:28;96841.34;;;11.70
8253;BMP280;61313;48.396;10.008;2023-01-05T09:37:53;96834.53;;;11.80
8253;BMP280;61313;48.396;10.008;2023-01-05T09:40:19;96836.34;;;11.93
8253;BMP280;61313;48.396;10.008;2023-01-05T09:42:47;96836.69;;;11.99
8253;BMP280;61313;48.396;10.008;2023-01-05T09:45:17;96831.00;;;12.11
8253;BMP280;61313;48.396;10.008;2023-01-05T09:47:46;96827.63;;;12.11
8253;BMP280;61313;48.396;10.008;2023-01-05T09:50:27;96838.16;;;12.07
8253;BMP280;61313;48.396;10.008;2023-01-05T09:52:56;96836.28;;;12.08
8253;BMP280;61313;48.396;10.008;2023-01-05T09:55:24;96844.19;;;12.08
8253;BMP280;61313;48.396;10.008;2023-01-05T09:57:55;96836.66;;;12.06
8253;BMP280;61313;48.396;10.008;2023-01-05T10:00:22;96843.44;;;12.07
8253;BMP280;61313;48.396;10.008;2023-01-05T10:02:52;96835.94;;;12.02
8253;BMP280;61313;48.396;10.008;2023-01-05T10:05:20;96831.75;;;12.08
8253;BMP280;61313;48.396;10.008;2023-01-05T10:07:53;96829.16;;;12.01
8253;BMP280;61313;48.396;10.008;2023-01-05T10:10:42;96829.16;;;12.01
8253;BMP280;61313;48.396;10.008;2023-01-05T10:13:20;96834.06;;;12.02
8253;BMP280;61313;48.396;10.008;2023-01-05T10:15:52;96828.38;;;12.11
8253;BMP280;61313;48.396;10.008;2023-01-05T10:18:21;96831.34;;;12.13
8253;BMP280;61313;48.396;10.008;2023-01-05T10:20:59;96841.19;;;12.05
8253;BMP280;61313;48.396;10.008;2023-01-05T10:23:52;96831.75;;;12.08
8253;BMP280;61313;48.396;10.008;2023-01-05T10:29:45;96834.34;;;12.12
8253;BMP280;61313;48.396;10.008;2023-01-05T10:32:11;96837.69;;;12.74
8253;BMP280;61313;48.396;10.008;2023-01-05T10:37:43;96833.44;;;13.93
8253;BMP280;61313;48.396;10.008;2023-01-05T10:45:50;96824.84;;;14.62
8253;BMP280;61313;48.396;10.008;2023-01-05T10:48:18;96834.72;;;14.58
8253;BMP280;61313;48.396;10.008;2023-01-05T10:50:47;96834.16;;;14.70
8253;BMP280;61313;48.396;10.008;2023-01-05T10:56:13;96824.28;;;14.94
8253;BMP280;61313;48.396;10.008;2023-01-05T10:58:44;96820.75;;;14.58
8253;BMP280;61313;48.396;10.008;2023-01-05T11:01:17;96824.09;;;14.12
8253;BMP280;61313;48.396;10.008;2023-01-05T11:03:46;96818.03;;;13.84
8253;BMP280;61313;48.396;10.008;2023-01-05T11:06:23;96818.41;;;13.22
8253;BMP280;61313;48.396;10.008;2023-01-05T11:08:50;96817.91;;;13.00
8253;BMP280;61313;48.396;10.008;2023-01-05T11:11:25;96810.03;;;12.93
8253;BMP280;61313;48.396;10.008;2023-01-05T11:13:57;96811.28;;;12.78
8253;BMP280;61313;48.396;10.008;2023-01-05T11:18:54;96809.78;;;12.77
8253;BMP280;61313;48.396;10.008;2023-01-05T11:23:55;96812.91;;;12.65
8253;BMP280;61313;48.396;10.008;2023-01-05T11:26:23;96800.75;;;12.74
8253;BMP280;61313;48.396;10.008;2023-01-05T11:29:24;96805.34;;;12.67
8253;BMP280;61313;48.396;10.008;2023-01-05T11:37:01;96815.19;;;12.63
8253;BMP280;61313;48.396;10.008;2023-01-05T11:39:29;96807.69;;;12.54
8253;BMP280;61313;48.396;10.008;2023-01-05T11:42:14;96805.53;;;12.46
8253;BMP280;61313;48.396;10.008;2023-01-05T11:44:47;96798.69;;;12.52
8253;BMP280;61313;48.396;10.008;2023-01-05T11:47:37;96809.63;;;12.50
8253;BMP280;61313;48.396;10.008;2023-01-05T11:52:44;96800.88;;;12.60
8253;BMP280;61313;48.396;10.008;2023-01-05T11:57:52;96805.41;;;13.01
8253;BMP280;61313;48.396;10.008;2023-01-05T12:05:34;96809.19;;;12.59
8253;BMP280;61313;48.396;10.008;2023-01-05T12:08:11;96813.38;;;12.53
8253;BMP280;61313;48.396;10.008;2023-01-05T12:11:11;96810.00;;;12.49
8253;BMP280;61313;48.396;10.008;2023-01-05T12:27:28;96820.94;;;12.51
8253;BMP280;61313;48.396;10.008;2023-01-05T12:30:10;96820.13;;;12.54
8253;BMP280;61313;48.396;10.008;2023-01-05T12:43:08;96834.47;;;12.56
8253;BMP280;61313;48.396;10.008;2023-01-05T12:46:04;96833.28;;;12.61
8253;BMP280;61313;48.396;10.008;2023-01-05T12:48:43;96827.28;;;12.57
8253;BMP280;61313;48.396;10.008;2023-01-05T12:51:29;96820.50;;;12.56
8253;BMP280;61313;48.396;10.008;2023-01-05T12:56:58;96825.78;;;12.59
8253;BMP280;61313;48.396;10.008;2023-01-05T13:00:26;96821.75;;;12.44
8253;BMP280;61313;48.396;10.008;2023-01-05T13:02:38;96826.91;;;12.55
8253;BMP280;61313;48.396;10.008;2023-01-05T13:10:38;96828.84;;;12.51
8253;BMP280;61313;48.396;10.008;2023-01-05T13:13:14;96828.47;;;12.52
8253;BMP280;61313;48.396;10.008;2023-01-05T13:15:57;96828.84;;;12.47
8253;BMP280;61313;48.396;10.008;2023-01-05T13:18:25;96833.03;;;12.44
8253;BMP280;61313;48.396;10.008;2023-01-05T13:20:56;96834.19;;;12.43
8253;BMP280;61313;48.396;10.008;2023-01-05T13:23:27;96835.31;;;12.46
8253;BMP280;61313;48.396;10.008;2023-01-05T13:25:57;96845.44;;;12.48
8253;BMP280;61313;48.396;10.008;2023-01-05T13:28:24;96844.28;;;12.52
8253;BMP280;61313;48.396;10.008;2023-01-05T13:36:00;96842.03;;;12.51
8253;BMP280;61313;48.396;10.008;2023-01-05T13:41:19;96844.31;;;12.49
8253;BMP280;61313;48.396;10.008;2023-01-05T13:44:08;96855.63;;;12.49
8253;BMP280;61313;48.396;10.008;2023-01-05T13:47:02;96852.59;;;12.51
8253;BMP280;61313;48.396;10.008;2023-01-05T13:54:55;96852.25;;;12.45
8253;BMP280;61313;48.396;10.008;2023-01-05T13:57:27;96843.22;;;12.46
8253;BMP280;61313;48.396;10.008;2023-01-05T13:59:57;96853.03;;;12.46
8253;BMP280;61313;48.396;10.008;2023-01-05T14:02:25;96852.28;;;12.41
8253;BMP280;61313;48.396;10.008;2023-01-05T14:04:52;96856.03;;;12.40
8253;BMP280;61313;48.396;10.008;2023-01-05T14:07:18;96858.75;;;12.30
8253;BMP280;61313;48.396;10.008;2023-01-05T14:09:46;96857.25;;;12.29
8253;BMP280;61313;48.396;10.008;2023-01-05T14:36:39;96866.88;;;12.57
8253;BMP280;61313;48.396;10.008;2023-01-05T14:39:19;96871.78;;;12.55
8253;BMP280;61313;48.396;10.008;2023-01-05T14:42:00;96870.28;;;12.54
8253;BMP280;61313;48.396;10.008;2023-01-05T14:44:34;96865.09;;;12.43
8253;BMP280;61313;48.396;10.008;2023-01-05T14:47:00;96873.75;;;12.43
8253;BMP280;61313;48.396;10.008;2023-01-05T14:49:32;96871.56;;;12.31
8253;BMP280;61313;48.396;10.008;2023-01-05T14:52:01;96874.94;;;12.35
8253;BMP280;61313;48.396;10.008;2023-01-05T15:00:13;96878.53;;;13.11
8253;BMP280;61313;48.396;10.008;2023-01-05T15:02:45;96873.38;;;13.38
8253;BMP280;61313;48.396;10.008;2023-01-05T15:05:15;96879.03;;;12.99
8253;BMP280;61313;48.396;10.008;2023-01-05T15:16:08;96886.81;;;12.61
8253;BMP280;61313;48.396;10.008;2023-01-05T15:21:49;96892.91;;;12.55
8253;BMP280;61313;48.396;10.008;2023-01-05T15:30:21;96886.91;;;12.47
8253;BMP280;61313;48.396;10.008;2023-01-05T15:32:53;96895.56;;;12.48
8253;BMP280;61313;48.396;10.008;2023-01-05T15:35:39;96888.47;;;12.41
8253;BMP280;61313;48.396;10.008;2023-01-05T15:38:22;96897.13;;;12.41
8253;BMP280;61313;48.396;10.008;2023-01-05T15:41:15;96899.38;;;12.43
8253;BMP280;61313;48.396;10.008;2023-01-05T15:43:40;96904.19;;;12.55
8253;BMP280;61313;48.396;10.008;2023-01-05T15:46:07;96900.47;;;12.53
8253;BMP280;61313;48.396;10.008;2023-01-05T15:48:39;96895.19;;;12.49
8253;BMP280;61313;48.396;10.008;2023-01-05T15:51:05;96898.25;;;12.44
8253;BMP280;61313;48.396;10.008;2023-01-05T15:53:34;96905.38;;;12.47
8253;BMP280;61313;48.396;10.008;2023-01-05T15:56:04;96908.78;;;12.48
8253;BMP280;61313;48.396;10.008;2023-01-05T15:58:35;96906.53;;;12.46
8253;BMP280;61313;48.396;10.008;2023-01-05T16:01:09;96905.00;;;12.49
8253;BMP280;61313;48.396;10.008;2023-01-05T16:03:37;96909.56;;;12.44
8253;BMP280;61313;48.396;10.008;2023-01-05T16:08:33;96918.69;;;12.29
8253;BMP280;61313;48.396;10.008;2023-01-05T16:11:00;96919.06;;;12.31
8253;BMP280;61313;48.396;10.008;2023-01-05T16:13:33;96924.34;;;12.31
8253;BMP280;61313;48.396;10.008;2023-01-05T16:16:02;96917.88;;;12.39
8253;BMP280;61313;48.396;10.008;2023-01-05T16:18:34;96917.97;;;12.25
8253;BMP280;61313;48.396;10.008;2023-01-05T16:21:10;96912.72;;;12.18
8253;BMP280;61313;48.396;10.008;2023-01-05T16:23:44;96920.97;;;12.24
8253;BMP280;61313;48.396;10.008;2023-01-05T16:26:15;96925.81;;;12.39
8253;BMP280;61313;48.396;10.008;2023-01-05T16:28:43;96922.00;;;12.40
8253;BMP280;61313;48.396;10.008;2023-01-05T16:31:13;96924.63;;;12.40
8253;BMP280;61313;48.396;10.008;2023-01-05T16:33:39;96923.53;;;12.38
8253;BMP280;61313;48.396;10.008;2023-01-05T16:36:19;96933.31;;;12.41
8253;BMP280;61313;48.396;10.008;2023-01-05T16:38:45;96931.09;;;12.39
8253;BMP280;61313;48.396;10.008;2023-01-05T16:41:23;96931.47;;;12.34
8253;BMP280;61313;48.396;10.008;2023-01-05T16:43:58;96930.63;;;12.48
8253;BMP280;61313;48.396;10.008;2023-01-05T16:46:35;96934.44;;;12.43
8253;BMP280;61313;48.396;10.008;2023-01-05T16:49:38;96928.00;;;12.52
8253;BMP280;61313;48.396;10.008;2023-01-05T16:52:08;96940.47;;;12.40
8253;BMP280;61313;48.396;10.008;2023-01-05T16:54:43;96948.41;;;12.37
8253;BMP280;61313;48.396;10.008;2023-01-05T16:57:32;96944.66;;;12.34
8253;BMP280;61313;48.396;10.008;2023-01-05T16:59:58;96943.56;;;12.32
8253;BMP280;61313;48.396;10.008;2023-01-05T17:05:10;96939.06;;;12.22